Time;durP1;ratioP1;P1;durP2;ratioP2;P2;SDS_P1;SDS_P2;PMS_P1;PMS_P2;Temp;Humidity;BMP_temperature;BMP_pressure;BME280_temperature;BME280_humidity;BME280_pressure;Samples;Min_cycle;Max_cycle;Signal;HPM_P1;HPM_P2
2022/08/26 00:01:53;;;;;;;49.10;44.70;;;21.10;99.90;;;;;;5099248;27;20059;-59
2022/08/26 00:04:20;;;;;;;52.20;47.67;;;21.10;99.90;;;;;;5046904;28;20044;-60
2022/08/26 00:06:46;;;;;;;52.15;47.38;;;21.00;99.90;;;;;;5100890;27;20051;-59
2022/08/26 00:09:13;;;;;;;48.85;44.40;;;21.00;99.90;;;;;;5067561;28;20075;-59
2022/08/26 00:11:39;;;;;;;55.78;51.13;;;20.90;99.90;;;;;;5074045;28;20074;-60
2022/08/26 00:14:05;;;;;;;55.72;51.00;;;20.90;99.90;;;;;;5070220;28;20048;-60
2022/08/26 00:16:32;;;;;;;58.13;52.92;;;20.80;99.90;;;;;;5090145;28;20043;-63
2022/08/26 00:18:58;;;;;;;54.55;49.83;;;20.80;99.90;;;;;;5097414;28;20484;-59
2022/08/26 00:21:25;;;;;;;55.92;51.20;;;20.70;99.90;;;;;;5070094;28;20374;-59
2022/08/26 00:23:51;;;;;;;59.33;54.28;;;20.70;99.90;;;;;;5108964;27;20040;-59
2022/08/26 00:26:17;;;;;;;60.10;54.83;;;20.70;99.90;;;;;;5071773;28;20051;-45
2022/08/26 00:28:44;;;;;;;59.28;54.03;;;20.70;99.90;;;;;;5073614;27;21673;-49
2022/08/26 00:31:11;;;;;;;63.22;57.63;;;20.60;99.90;;;;;;5087032;28;20283;-47
2022/08/26 00:33:38;;;;;;;60.05;54.75;;;20.50;99.90;;;;;;5067238;28;20782;-45
2022/08/26 00:36:05;;;;;;;60.22;54.80;;;20.50;99.90;;;;;;5070983;28;20043;-45
2022/08/26 00:38:32;;;;;;;60.95;55.75;;;20.50;99.90;;;;;;5087489;28;20079;-60
2022/08/26 00:40:58;;;;;;;62.28;56.88;;;20.50;99.90;;;;;;5090595;28;20541;-44
2022/08/26 00:43:25;;;;;;;58.08;53.13;;;20.40;99.90;;;;;;5084577;28;20044;-47
2022/08/26 00:45:58;;;;;;;61.50;56.22;;;20.50;99.90;;;;;;5083802;28;20035;-45
2022/08/26 00:48:27;;;;;;;62.33;56.45;;;20.40;99.90;;;;;;5088912;28;20718;-45
2022/08/26 00:51:10;;;;;;;65.60;59.80;;;20.40;99.90;;;;;;5106698;27;20052;-47
2022/08/26 00:53:44;;;;;;;64.03;58.40;;;20.40;99.90;;;;;;5086103;28;20130;-46
2022/08/26 00:56:33;;;;;;;63.85;58.20;;;20.40;99.90;;;;;;5083863;28;20079;-59
2022/08/26 00:59:04;;;;;;;65.20;59.17;;;20.30;99.90;;;;;;5084637;28;20551;-59
2022/08/26 01:01:30;;;;;;;63.83;57.80;;;20.30;99.90;;;;;;5066215;28;20084;-59
2022/08/26 01:03:56;;;;;;;65.65;59.83;;;20.30;99.90;;;;;;5083960;28;20437;-45
2022/08/26 01:06:23;;;;;;;67.60;61.03;;;20.30;99.90;;;;;;5081588;28;20051;-46
2022/08/26 01:08:51;;;;;;;65.43;59.30;;;20.20;99.90;;;;;;5106584;27;20430;-47
2022/08/26 01:11:17;;;;;;;63.85;57.78;;;20.30;99.90;;;;;;5100312;27;20462;-45
2022/08/26 01:13:43;;;;;;;63.53;57.63;;;20.30;99.90;;;;;;5070047;28;20036;-46
2022/08/26 01:16:13;;;;;;;65.03;58.78;;;20.20;99.90;;;;;;5067143;28;20139;-46
2022/08/26 01:18:42;;;;;;;66.68;60.17;;;20.20;99.90;;;;;;5086272;28;20056;-48
2022/08/26 01:21:35;;;;;;;65.57;59.20;;;20.30;99.90;;;;;;5069060;28;20116;-59
2022/08/26 01:24:01;;;;;;;66.43;59.20;;;20.30;99.90;;;;;;5086160;28;20044;-61
2022/08/26 01:26:40;;;;;;;63.58;57.33;;;20.30;99.90;;;;;;5082266;28;20040;-59
2022/08/26 01:29:11;;;;;;;63.38;56.53;;;20.30;99.90;;;;;;5088145;28;20071;-59
2022/08/26 01:31:42;;;;;;;58.63;53.03;;;20.30;99.90;;;;;;5101334;27;20044;-44
2022/08/26 01:34:09;;;;;;;60.42;54.67;;;20.30;99.90;;;;;;5082663;28;20047;-43
2022/08/26 01:36:37;;;;;;;58.92;52.72;;;20.40;99.90;;;;;;5058827;28;20049;-61
2022/08/26 01:39:05;;;;;;;60.40;54.42;;;20.40;99.90;;;;;;5066650;28;20048;-58
2022/08/26 01:41:33;;;;;;;55.67;50.58;;;20.40;99.90;;;;;;5088923;28;20047;-58
2022/08/26 01:44:00;;;;;;;55.75;50.15;;;20.40;99.90;;;;;;5085074;28;20047;-58
2022/08/26 01:46:28;;;;;;;54.53;48.92;;;20.40;99.90;;;;;;5077120;27;20059;-44
2022/08/26 01:48:58;;;;;;;53.78;48.45;;;20.40;99.90;;;;;;5069180;28;20162;-46
2022/08/26 01:51:26;;;;;;;53.75;48.55;;;20.40;99.90;;;;;;5090447;28;20124;-45
2022/08/26 01:53:53;;;;;;;54.22;49.03;;;20.40;99.90;;;;;;5052300;27;20040;-45
2022/08/26 01:56:22;;;;;;;51.72;46.72;;;20.40;99.90;;;;;;5110772;27;20509;-45
2022/08/26 01:58:52;;;;;;;51.30;46.20;;;20.50;99.90;;;;;;5096126;27;20047;-44
2022/08/26 02:01:21;;;;;;;50.53;44.85;;;20.50;99.90;;;;;;5069100;28;20600;-45
2022/08/26 02:03:52;;;;;;;47.30;42.33;;;20.50;99.90;;;;;;5089327;28;20156;-48
2022/08/26 02:06:21;;;;;;;47.90;43.25;;;20.50;99.90;;;;;;5089017;28;20521;-46
2022/08/26 02:08:50;;;;;;;48.17;42.90;;;20.50;99.90;;;;;;5076714;28;20460;-43
2022/08/26 02:11:17;;;;;;;46.28;41.80;;;20.50;99.90;;;;;;5088453;28;20090;-44
2022/08/26 02:13:51;;;;;;;46.00;40.97;;;20.50;99.90;;;;;;5073099;27;20124;-45
2022/08/26 02:16:21;;;;;;;45.60;41.20;;;20.50;99.90;;;;;;5057213;28;20113;-44
2022/08/26 02:18:49;;;;;;;45.17;40.53;;;20.50;99.90;;;;;;5094228;27;20418;-45
2022/08/26 02:21:16;;;;;;;45.08;40.55;;;20.50;99.90;;;;;;5091894;28;20048;-43
2022/08/26 02:23:43;;;;;;;47.70;42.92;;;20.50;99.90;;;;;;5091136;28;20048;-44
2022/08/26 02:26:10;;;;;;;45.10;40.40;;;20.50;99.90;;;;;;5087488;28;20043;-48
2022/08/26 02:28:51;;;;;;;42.85;38.53;;;20.60;99.90;;;;;;5090943;27;20087;-45
2022/08/26 02:31:17;;;;;;;42.70;38.50;;;20.50;99.90;;;;;;5093177;27;20043;-47
2022/08/26 02:33:43;;;;;;;43.95;39.35;;;20.50;99.90;;;;;;5080111;28;20124;-59
2022/08/26 02:36:09;;;;;;;42.72;38.60;;;20.60;99.90;;;;;;5092209;28;20036;-59
2022/08/26 02:38:36;;;;;;;41.97;37.88;;;20.50;99.90;;;;;;5057077;28;20683;-60
2022/08/26 02:41:02;;;;;;;42.13;37.60;;;20.50;99.90;;;;;;5088897;28;20062;-58
2022/08/26 02:43:29;;;;;;;42.25;37.85;;;20.50;99.90;;;;;;5066983;28;20048;-58
2022/08/26 02:45:55;;;;;;;41.50;37.08;;;20.50;99.90;;;;;;5071789;28;20463;-59
2022/08/26 02:48:21;;;;;;;40.72;36.83;;;20.50;99.90;;;;;;5058105;28;20072;-61
2022/08/26 02:50:48;;;;;;;42.47;37.97;;;20.50;99.90;;;;;;5091218;28;20519;-60
2022/08/26 02:53:15;;;;;;;42.22;37.20;;;20.50;99.90;;;;;;5066638;28;20079;-59
2022/08/26 02:55:41;;;;;;;41.55;37.17;;;20.50;99.90;;;;;;5079816;28;20718;-60
2022/08/26 02:58:08;;;;;;;42.63;36.58;;;20.50;99.90;;;;;;5091122;27;20139;-60
2022/08/26 03:00:37;;;;;;;40.10;36.10;;;20.50;99.90;;;;;;5106801;27;20047;-62
2022/08/26 03:03:03;;;;;;;41.78;35.10;;;20.50;99.90;;;;;;5091201;28;20476;-58
2022/08/26 03:05:29;;;;;;;37.53;33.63;;;20.50;99.90;;;;;;5076988;28;20032;-58
2022/08/26 03:07:55;;;;;;;37.28;33.42;;;20.50;99.90;;;;;;5074844;28;20541;-59
2022/08/26 03:10:22;;;;;;;38.53;34.17;;;20.50;99.90;;;;;;5071015;28;20036;-59
2022/08/26 03:12:48;;;;;;;36.35;32.58;;;20.50;99.90;;;;;;5089732;27;20678;-59
2022/08/26 03:15:16;;;;;;;38.72;34.10;;;20.40;99.90;;;;;;5074014;28;20493;-59
2022/08/26 03:17:43;;;;;;;35.80;31.92;;;20.50;99.90;;;;;;5094059;28;20047;-45
2022/08/26 03:20:10;;;;;;;34.95;31.25;;;20.50;99.90;;;;;;5091667;27;20402;-45
2022/08/26 03:22:37;;;;;;;33.20;30.08;;;20.50;99.90;;;;;;5104523;27;20643;-46
2022/08/26 03:25:05;;;;;;;34.60;30.63;;;20.50;99.90;;;;;;5073582;28;20152;-45
2022/08/26 03:27:31;;;;;;;31.90;27.17;;;20.50;99.90;;;;;;5076141;27;20538;-47
2022/08/26 03:32:43;;;;;;;30.75;27.55;;;20.50;99.90;;;;;;5105017;27;20052;-44
2022/08/26 03:35:11;;;;;;;32.10;28.88;;;20.50;99.90;;;;;;5082316;27;20488;-46
2022/08/26 03:37:38;;;;;;;32.75;28.23;;;20.50;99.90;;;;;;5087589;27;20051;-46
2022/08/26 03:40:07;;;;;;;32.42;28.73;;;20.50;99.90;;;;;;5075332;28;20276;-48
2022/08/26 03:42:38;;;;;;;32.70;28.95;;;20.50;99.90;;;;;;5083315;28;20079;-54
2022/08/26 03:45:07;;;;;;;33.25;29.60;;;20.50;99.90;;;;;;5091723;27;20051;-53
2022/08/26 03:47:34;;;;;;;33.35;27.67;;;20.60;99.90;;;;;;5078054;28;20165;-43
2022/08/26 03:50:01;;;;;;;31.23;27.85;;;20.50;99.90;;;;;;5081484;28;20459;-46
2022/08/26 03:52:28;;;;;;;32.13;28.42;;;20.50;99.90;;;;;;5106085;27;20040;-44
2022/08/26 03:54:55;;;;;;;34.60;27.55;;;20.50;99.90;;;;;;5070321;28;20048;-50
2022/08/26 03:57:21;;;;;;;32.05;27.33;;;20.50;99.90;;;;;;5075227;28;20471;-47
2022/08/26 03:59:48;;;;;;;29.52;26.50;;;20.50;99.90;;;;;;5087679;27;20086;-46
2022/08/26 04:02:17;;;;;;;33.28;25.85;;;20.50;99.90;;;;;;5072644;28;20058;-44
2022/08/26 04:04:43;;;;;;;30.25;27.00;;;20.50;99.90;;;;;;5094296;28;20485;-46
2022/08/26 04:07:09;;;;;;;29.85;24.23;;;20.50;99.90;;;;;;5079300;28;20601;-59
2022/08/26 04:09:35;;;;;;;26.50;22.67;;;20.50;99.90;;;;;;5067062;28;20052;-58
2022/08/26 04:12:02;;;;;;;28.83;23.50;;;20.50;99.90;;;;;;5068606;28;20718;-58
2022/08/26 04:14:29;;;;;;;28.88;24.13;;;20.50;99.90;;;;;;5054385;28;20132;-44
2022/08/26 04:16:56;;;;;;;29.13;23.48;;;20.50;99.90;;;;;;5085534;28;20051;-43
2022/08/26 04:19:23;;;;;;;27.88;23.25;;;20.50;99.90;;;;;;5083604;27;20101;-46
2022/08/26 04:21:51;;;;;;;25.48;20.38;;;20.50;99.90;;;;;;5070080;28;20135;-44
2022/08/26 04:24:20;;;;;;;25.52;22.20;;;20.50;99.90;;;;;;5100331;27;20140;-45
2022/08/26 04:26:47;;;;;;;28.10;21.25;;;20.50;99.90;;;;;;5098413;27;20070;-49
2022/08/26 04:29:19;;;;;;;26.17;20.55;;;20.50;99.90;;;;;;5087581;28;20071;-44
2022/08/26 04:31:48;;;;;;;26.67;19.98;;;20.50;99.90;;;;;;5064775;28;20048;-44
2022/08/26 04:34:15;;;;;;;23.67;19.48;;;20.60;99.90;;;;;;5067958;28;20058;-46
2022/08/26 04:36:42;;;;;;;23.45;19.50;;;20.60;99.90;;;;;;5069336;28;20039;-58
2022/08/26 04:39:11;;;;;;;27.15;19.67;;;20.60;99.90;;;;;;5067659;28;20163;-44
2022/08/26 04:41:38;;;;;;;22.40;18.20;;;20.60;99.90;;;;;;5068617;28;20032;-45
2022/08/26 04:44:05;;;;;;;24.10;18.92;;;20.60;99.90;;;;;;5067596;28;20046;-47
2022/08/26 04:46:32;;;;;;;25.70;18.15;;;20.60;99.90;;;;;;5046795;28;20044;-45
2022/08/26 04:48:58;;;;;;;27.50;19.77;;;20.60;99.90;;;;;;5084475;27;20051;-43
2022/08/26 04:51:27;;;;;;;23.65;18.58;;;20.50;99.90;;;;;;5066624;28;20048;-58
2022/08/26 04:53:58;;;;;;;23.25;19.38;;;20.60;99.90;;;;;;5068229;28;20051;-58
2022/08/26 04:56:31;;;;;;;20.23;17.25;;;20.60;99.90;;;;;;5085579;28;20047;-60
2022/08/26 04:58:57;;;;;;;21.85;18.20;;;20.60;99.90;;;;;;5098653;27;20082;-59
2022/08/26 05:01:24;;;;;;;24.33;17.83;;;20.60;99.90;;;;;;5064118;28;20048;-59
2022/08/26 05:03:51;;;;;;;23.30;19.38;;;20.60;99.90;;;;;;5071689;28;20090;-59
2022/08/26 05:06:18;;;;;;;22.40;18.02;;;20.50;99.90;;;;;;5069328;28;20067;-47
2022/08/26 05:08:45;;;;;;;24.00;17.15;;;20.60;99.90;;;;;;5074762;28;20127;-48
2022/08/26 05:11:12;;;;;;;20.90;17.55;;;20.60;99.90;;;;;;5066270;28;20705;-44
2022/08/26 05:13:39;;;;;;;24.45;18.27;;;20.60;99.90;;;;;;5072381;28;20051;-46
2022/08/26 05:16:09;;;;;;;21.45;16.23;;;20.70;99.90;;;;;;5072665;28;20055;-45
2022/08/26 05:18:36;;;;;;;19.55;17.08;;;20.70;99.90;;;;;;5055923;28;20514;-46
2022/08/26 05:21:03;;;;;;;17.60;15.77;;;20.70;99.90;;;;;;5105981;27;20079;-46
2022/08/26 05:23:30;;;;;;;23.60;15.82;;;20.70;99.90;;;;;;5100354;27;20059;-47
2022/08/26 05:25:58;;;;;;;17.30;15.50;;;20.70;99.90;;;;;;5066184;28;20121;-46
2022/08/26 05:28:27;;;;;;;19.58;16.15;;;20.80;99.90;;;;;;5070743;28;20076;-44
2022/08/26 05:30:54;;;;;;;19.77;16.17;;;20.80;99.90;;;;;;5098952;27;20048;-43
2022/08/26 05:33:21;;;;;;;20.65;16.98;;;20.70;99.90;;;;;;5063937;28;20485;-45
2022/08/26 05:35:48;;;;;;;22.98;16.70;;;20.70;99.90;;;;;;5066316;28;20455;-46
2022/08/26 05:38:19;;;;;;;21.10;16.60;;;20.70;99.90;;;;;;5070229;28;20050;-44
2022/08/26 05:40:48;;;;;;;20.35;16.23;;;20.70;99.90;;;;;;5055791;28;20097;-45
2022/08/26 05:43:16;;;;;;;20.02;15.25;;;20.70;99.90;;;;;;5075630;28;20051;-45
2022/08/26 05:45:45;;;;;;;18.95;15.15;;;20.70;99.90;;;;;;5054374;28;20131;-45
2022/08/26 05:48:14;;;;;;;18.15;13.57;;;20.80;99.90;;;;;;5066589;28;20624;-44
2022/08/26 05:50:43;;;;;;;19.33;13.57;;;20.80;99.90;;;;;;5069190;28;20494;-44
2022/08/26 05:53:11;;;;;;;26.27;18.88;;;20.80;99.90;;;;;;5070545;28;20075;-43
2022/08/26 05:55:43;;;;;;;24.80;17.58;;;20.80;99.90;;;;;;5104559;27;20055;-44
2022/08/26 05:58:10;;;;;;;16.90;14.13;;;20.80;99.90;;;;;;5071757;28;20402;-46
2022/08/26 06:00:38;;;;;;;18.88;13.32;;;20.80;99.90;;;;;;5086116;28;20048;-59
2022/08/26 06:03:05;;;;;;;23.52;13.43;;;20.80;99.90;;;;;;5069824;28;20049;-45
2022/08/26 06:05:31;;;;;;;23.55;15.45;;;20.90;99.90;;;;;;5069368;28;20091;-47
2022/08/26 06:08:09;;;;;;;14.45;11.32;;;20.90;99.90;;;;;;5068431;28;20143;-45
2022/08/26 06:11:01;;;;;;;19.92;12.00;;;20.90;99.90;;;;;;5057442;28;20159;-50
2022/08/26 06:13:28;;;;;;;15.57;12.45;;;21.00;99.90;;;;;;5067486;28;20083;-46
2022/08/26 06:15:55;;;;;;;19.90;14.75;;;21.00;99.90;;;;;;5071408;28;20069;-44
2022/08/26 06:18:29;;;;;;;25.98;19.02;;;21.00;99.90;;;;;;5065993;28;20620;-46
2022/08/26 06:20:55;;;;;;;18.15;12.32;;;21.10;99.90;;;;;;5069588;28;20418;-48
2022/08/26 06:26:09;;;;;;;23.88;19.10;;;21.10;99.90;;;;;;5071566;28;20548;-47
2022/08/26 06:28:36;;;;;;;25.17;21.83;;;21.20;99.90;;;;;;5055921;28;20534;-46
2022/08/26 06:31:03;;;;;;;17.45;11.00;;;21.30;99.90;;;;;;5069110;28;20493;-45
2022/08/26 06:33:31;;;;;;;17.30;11.57;;;21.30;99.90;;;;;;5055250;28;20033;-45
2022/08/26 06:35:57;;;;;;;22.80;11.43;;;21.50;99.90;;;;;;5068250;28;20103;-42
2022/08/26 06:38:24;;;;;;;19.15;11.48;;;21.60;99.90;;;;;;5069563;28;20057;-57
2022/08/26 06:40:53;;;;;;;15.63;11.02;;;21.60;99.90;;;;;;5065385;28;20499;-59
2022/08/26 06:43:23;;;;;;;28.10;20.88;;;21.70;99.90;;;;;;5071727;28;20044;-59
2022/08/26 06:45:51;;;;;;;20.40;14.97;;;21.70;99.90;;;;;;5069287;28;20046;-54
2022/08/26 06:48:20;;;;;;;20.92;11.32;;;21.80;99.90;;;;;;5068623;28;20040;-58
2022/08/26 06:50:47;;;;;;;18.70;10.32;;;21.90;99.90;;;;;;5107897;27;20403;-59
2022/08/26 06:53:14;;;;;;;16.63;9.18;;;21.90;99.90;;;;;;5093866;27;20052;-60
2022/08/26 06:55:42;;;;;;;13.73;9.40;;;21.80;99.90;;;;;;5076182;28;20335;-58
2022/08/26 06:58:09;;;;;;;16.60;10.02;;;21.90;99.90;;;;;;5063726;28;20513;-59
2022/08/26 07:00:37;;;;;;;16.20;9.35;;;21.90;99.90;;;;;;5073062;28;20042;-58
2022/08/26 07:03:05;;;;;;;17.35;9.68;;;22.10;99.90;;;;;;5069426;28;20067;-58
2022/08/26 07:05:32;;;;;;;17.70;9.50;;;22.10;99.90;;;;;;5102373;27;20056;-59
2022/08/26 07:07:59;;;;;;;17.27;9.32;;;22.30;99.90;;;;;;5085176;27;20151;-58
2022/08/26 07:10:25;;;;;;;17.85;8.80;;;22.30;99.90;;;;;;5069516;28;20039;-58
2022/08/26 07:12:52;;;;;;;17.58;10.10;;;22.30;99.90;;;;;;5070248;28;20044;-57
2022/08/26 07:15:19;;;;;;;16.77;8.15;;;22.30;99.90;;;;;;5085349;27;20953;-58
2022/08/26 07:17:45;;;;;;;17.35;7.50;;;22.30;99.90;;;;;;5067135;28;20341;-54
2022/08/26 07:20:12;;;;;;;44.20;39.50;;;22.30;99.90;;;;;;5039303;28;20081;-58
2022/08/26 07:22:38;;;;;;;14.82;8.82;;;22.30;99.90;;;;;;5098371;27;20139;-60
2022/08/26 07:25:07;;;;;;;15.35;8.13;;;22.10;99.90;;;;;;5101290;27;20063;-45
2022/08/26 07:27:35;;;;;;;16.50;9.05;;;22.00;99.90;;;;;;5085164;27;20860;-47
2022/08/26 07:30:03;;;;;;;12.80;8.30;;;22.00;99.90;;;;;;5101878;27;20048;-53
2022/08/26 07:32:29;;;;;;;13.00;8.95;;;21.90;99.90;;;;;;5069513;28;20052;-49
2022/08/26 07:34:55;;;;;;;15.55;9.20;;;21.90;99.90;;;;;;5101244;27;20438;-47
2022/08/26 07:37:23;;;;;;;16.38;7.82;;;22.00;99.90;;;;;;5072150;28;20044;-61
2022/08/26 07:39:49;;;;;;;15.00;8.07;;;21.90;99.90;;;;;;5069925;28;20093;-61
2022/08/26 07:42:17;;;;;;;16.40;7.70;;;21.90;99.90;;;;;;5105646;27;20147;-60
2022/08/26 07:44:44;;;;;;;14.25;7.05;;;22.00;99.90;;;;;;5090731;28;20101;-59
2022/08/26 07:47:11;;;;;;;17.08;6.97;;;22.00;99.90;;;;;;5072190;28;20255;-59
2022/08/26 07:49:41;;;;;;;14.80;7.28;;;22.00;99.90;;;;;;5067687;28;20048;-60
2022/08/26 07:52:08;;;;;;;15.48;6.53;;;21.90;99.90;;;;;;5102099;27;20047;-59
2022/08/26 07:54:36;;;;;;;12.85;5.75;;;21.80;99.90;;;;;;5070624;28;20500;-59
2022/08/26 07:57:04;;;;;;;15.50;6.30;;;21.70;99.90;;;;;;5072900;28;20043;-46
2022/08/26 07:59:30;;;;;;;18.48;5.95;;;21.70;99.90;;;;;;5099056;27;20040;-60
2022/08/26 08:01:58;;;;;;;13.15;7.82;;;21.70;99.90;;;;;;5064925;28;20458;-59
2022/08/26 08:04:25;;;;;;;16.75;5.75;;;21.80;99.90;;;;;;5084472;28;20048;-49
2022/08/26 08:06:52;;;;;;;16.30;5.13;;;21.70;99.90;;;;;;5089938;28;20051;-61
2022/08/26 08:09:19;;;;;;;13.90;6.10;;;21.70;99.90;;;;;;5082275;27;20455;-60
2022/08/26 08:11:45;;;;;;;19.25;7.53;;;21.70;99.90;;;;;;5068791;28;20466;-63
2022/08/26 08:14:12;;;;;;;16.02;6.95;;;21.60;99.90;;;;;;5050883;28;20040;-61
2022/08/26 08:16:39;;;;;;;10.75;5.63;;;21.60;99.90;;;;;;5084881;27;20074;-59
2022/08/26 08:19:05;;;;;;;15.23;5.93;;;21.60;99.90;;;;;;5066100;28;20159;-60
2022/08/26 08:21:32;;;;;;;14.70;6.20;;;21.70;99.90;;;;;;5067916;28;20045;-60
2022/08/26 08:24:01;;;;;;;17.90;5.47;;;21.70;99.90;;;;;;5076993;28;20055;-60
2022/08/26 08:26:27;;;;;;;13.45;5.30;;;21.70;99.90;;;;;;5066274;28;20067;-63
2022/08/26 08:28:56;;;;;;;11.60;4.93;;;21.80;99.90;;;;;;5067933;28;20131;-59
2022/08/26 08:31:25;;;;;;;12.73;5.05;;;21.80;99.90;;;;;;5067216;28;20737;-59
2022/08/26 08:33:52;;;;;;;10.98;5.05;;;21.80;99.90;;;;;;5093627;27;20045;-59
2022/08/26 08:36:18;;;;;;;9.55;4.50;;;21.90;99.90;;;;;;5082389;27;20102;-61
2022/08/26 08:38:47;;;;;;;12.05;4.20;;;21.90;99.90;;;;;;5096373;27;20043;-61
2022/08/26 08:41:36;;;;;;;14.70;4.25;;;21.90;99.90;;;;;;5069786;28;20067;-61
2022/08/26 08:44:09;;;;;;;12.07;3.80;;;21.90;99.90;;;;;;5072951;28;20904;-60
2022/08/26 08:46:36;;;;;;;10.68;3.35;;;21.90;99.90;;;;;;5061814;28;20041;-59
2022/08/26 08:49:03;;;;;;;10.13;3.05;;;21.70;99.90;;;;;;5072001;28;20052;-62
2022/08/26 08:52:00;;;;;;;11.90;3.50;;;21.70;99.90;;;;;;5083593;27;20121;-60
2022/08/26 08:54:29;;;;;;;10.68;2.65;;;21.80;99.90;;;;;;5088000;27;20055;-60
2022/08/26 08:57:03;;;;;;;10.77;3.05;;;21.70;99.90;;;;;;5066516;28;20040;-44
2022/08/26 08:59:35;;;;;;;11.82;3.08;;;21.70;99.90;;;;;;5107278;27;20055;-44
2022/08/26 09:02:20;;;;;;;10.70;3.40;;;21.80;99.90;;;;;;5096130;27;20075;-47
2022/08/26 09:05:17;;;;;;;11.40;3.00;;;21.90;99.90;;;;;;5099433;27;20648;-45
2022/08/26 09:08:05;;;;;;;9.98;2.45;;;22.00;99.90;;;;;;5078393;28;20117;-45
2022/08/26 09:10:39;;;;;;;9.20;2.78;;;22.10;99.90;;;;;;5082416;28;20051;-45
2022/08/26 09:13:16;;;;;;;10.77;3.15;;;22.10;99.90;;;;;;5068193;28;20523;-44
2022/08/26 09:15:49;;;;;;;10.88;3.42;;;22.00;99.90;;;;;;5072103;28;20422;-46
2022/08/26 09:18:53;;;;;;;9.45;2.67;;;22.00;99.90;;;;;;5100321;27;20219;-49
2022/08/26 09:21:22;;;;;;;8.68;1.90;;;22.10;99.90;;;;;;5079812;28;20034;-42
2022/08/26 09:23:50;;;;;;;11.68;2.65;;;22.30;99.90;;;;;;5071341;28;20046;-47
2022/08/26 09:26:44;;;;;;;9.10;1.85;;;22.30;99.90;;;;;;5098308;27;20055;-47
2022/08/26 09:29:26;;;;;;;9.48;2.47;;;22.30;99.90;;;;;;5087427;28;20048;-48
2022/08/26 09:32:22;;;;;;;11.85;4.03;;;22.30;99.90;;;;;;5071378;28;20044;-45
2022/08/26 09:35:02;;;;;;;14.35;9.70;;;22.30;99.90;;;;;;5061078;28;20601;-46
2022/08/26 09:37:38;;;;;;;10.32;2.58;;;22.30;99.90;;;;;;5082146;28;20043;-48
2022/08/26 09:40:22;;;;;;;13.35;8.25;;;22.40;99.90;;;;;;5101577;27;20038;-46
2022/08/26 09:43:12;;;;;;;12.75;4.70;;;22.50;99.90;;;;;;5084017;28;20618;-48
2022/08/26 09:45:41;;;;;;;11.13;4.97;;;22.50;99.90;;;;;;5080618;28;20374;-48
2022/08/26 09:48:08;;;;;;;11.35;3.70;;;22.40;99.90;;;;;;5072655;28;20048;-44
2022/08/26 09:50:51;;;;;;;13.63;3.50;;;22.40;99.90;;;;;;5067410;28;20049;-45
2022/08/26 09:53:20;;;;;;;9.68;2.22;;;22.40;99.90;;;;;;5098292;27;20039;-44
2022/08/26 09:55:53;;;;;;;5.63;1.98;;;22.50;99.90;;;;;;5086824;28;20048;-46
2022/08/26 09:58:41;;;;;;;5.70;2.08;;;22.40;99.90;;;;;;5079509;28;20286;-46
2022/08/26 10:01:15;;;;;;;9.27;2.13;;;22.40;99.90;;;;;;5083060;28;20050;-49
2022/08/26 10:03:41;;;;;;;11.63;6.28;;;22.50;99.90;;;;;;5098534;27;20050;-49
2022/08/26 10:06:17;;;;;;;9.68;2.40;;;22.50;99.90;;;;;;5052550;28;20585;-46
2022/08/26 10:08:46;;;;;;;8.75;2.50;;;22.60;99.90;;;;;;5071462;28;20126;-48
2022/08/26 10:11:18;;;;;;;8.18;2.38;;;22.40;99.90;;;;;;5087116;28;20073;-46
2022/08/26 10:13:50;;;;;;;8.40;2.58;;;22.50;99.90;;;;;;5086029;27;20039;-59
2022/08/26 10:16:24;;;;;;;8.13;2.40;;;22.50;99.90;;;;;;5070020;28;20249;-59
2022/08/26 10:19:14;;;;;;;12.13;3.88;;;22.50;99.90;;;;;;5090957;27;20059;-42
2022/08/26 10:22:03;;;;;;;11.25;6.57;;;22.70;99.90;;;;;;5070387;27;20384;-40
2022/08/26 10:24:47;;;;;;;6.95;2.53;;;22.90;99.90;;;;;;5103200;27;20256;-58
2022/08/26 10:27:43;;;;;;;10.73;5.28;;;23.00;99.90;;;;;;5101418;27;20505;-58
2022/08/26 10:30:13;;;;;;;10.55;4.43;;;23.40;99.90;;;;;;5038123;27;20560;-44
2022/08/26 10:32:45;;;;;;;7.82;3.05;;;23.60;99.90;;;;;;5105387;27;20531;-43
2022/08/26 10:35:13;;;;;;;10.88;2.95;;;23.80;99.90;;;;;;5088557;27;20087;-43
2022/08/26 10:37:47;;;;;;;10.43;3.28;;;23.70;99.90;;;;;;5052241;28;20047;-40
2022/08/26 10:40:25;;;;;;;10.30;3.63;;;23.70;99.90;;;;;;5092296;27;20385;-41
2022/08/26 10:43:08;;;;;;;12.20;4.35;;;23.50;99.90;;;;;;5090257;28;20318;-43
2022/08/26 10:45:52;;;;;;;8.38;2.15;;;23.50;99.90;;;;;;5094493;27;20055;-42
2022/08/26 10:48:56;;;;;;;6.78;3.03;;;23.50;99.90;;;;;;5090953;28;20044;-41
2022/08/26 10:51:37;;;;;;;9.68;2.92;;;23.20;99.90;;;;;;5067788;27;20044;-58
2022/08/26 10:54:17;;;;;;;9.30;2.42;;;23.30;99.90;;;;;;5057098;28;20058;-58
2022/08/26 10:56:57;;;;;;;9.05;2.50;;;23.30;99.90;;;;;;5089812;27;20145;-59
2022/08/26 10:59:29;;;;;;;9.13;2.28;;;23.30;99.90;;;;;;5070476;28;20055;-58
2022/08/26 11:02:20;;;;;;;7.07;2.20;;;23.20;99.90;;;;;;5065121;27;20593;-58
2022/08/26 11:05:04;;;;;;;62.67;56.20;;;23.10;99.90;;;;;;5103934;27;20046;-45
2022/08/26 11:08:29;;;;;;;8.23;2.72;;;23.10;99.90;;;;;;5087438;27;20573;-42
2022/08/26 11:10:58;;;;;;;20.02;12.80;;;23.20;99.90;;;;;;5073201;27;20039;-46
2022/08/26 11:13:55;;;;;;;58.63;52.65;;;23.00;99.90;;;;;;5072480;28;20039;-41
2022/08/26 11:16:41;;;;;;;6.95;2.65;;;23.10;99.90;;;;;;5082533;27;20101;-43
2022/08/26 11:19:11;;;;;;;9.32;3.38;;;23.10;99.90;;;;;;5105818;27;20059;-42
2022/08/26 11:21:51;;;;;;;9.05;2.75;;;23.00;99.90;;;;;;5089663;27;20118;-48
2022/08/26 11:24:45;;;;;;;9.57;2.92;;;22.90;99.90;;;;;;5087983;28;20055;-42
2022/08/26 11:27:36;;;;;;;13.70;3.55;;;22.90;99.90;;;;;;5064968;28;20036;-46
2022/08/26 11:30:11;;;;;;;9.73;2.55;;;23.00;99.90;;;;;;5085116;27;20055;-44
2022/08/26 11:32:38;;;;;;;9.82;2.35;;;23.00;99.90;;;;;;5092367;27;20048;-47
2022/08/26 11:35:18;;;;;;;15.88;9.57;;;23.00;99.90;;;;;;5067772;28;20055;-48
2022/08/26 11:37:47;;;;;;;8.35;2.33;;;23.00;99.90;;;;;;5085105;27;20059;-49
2022/08/26 11:40:14;;;;;;;13.98;7.63;;;22.90;99.90;;;;;;5081935;27;20055;-46
2022/08/26 11:42:53;;;;;;;11.55;6.75;;;23.10;99.90;;;;;;5089727;27;20466;-44
2022/08/26 11:45:37;;;;;;;12.20;2.83;;;23.10;99.90;;;;;;5101464;27;20073;-44
2022/08/26 11:48:32;;;;;;;10.30;2.38;;;23.00;99.90;;;;;;5095371;27;20131;-45
2022/08/26 11:51:10;;;;;;;10.90;4.25;;;22.70;99.90;;;;;;5067061;28;20056;-47
2022/08/26 11:53:40;;;;;;;8.05;2.40;;;22.60;99.90;;;;;;5080896;27;20073;-46
2022/08/26 11:56:34;;;;;;;11.00;2.85;;;22.30;99.90;;;;;;5104269;27;20040;-45
2022/08/26 11:59:05;;;;;;;8.20;2.30;;;22.10;99.90;;;;;;5048321;28;20048;-44
2022/08/26 12:01:38;;;;;;;15.48;6.57;;;22.10;99.90;;;;;;5089523;28;20074;-47
2022/08/26 12:04:20;;;;;;;17.55;9.63;;;22.10;99.90;;;;;;5073051;27;20088;-45
2022/08/26 12:06:49;;;;;;;11.95;2.22;;;22.10;99.90;;;;;;5081895;28;20367;-46
2022/08/26 12:09:25;;;;;;;7.45;3.25;;;22.00;99.90;;;;;;5107597;27;20414;-46
2022/08/26 12:11:53;;;;;;;7.05;2.00;;;21.80;99.90;;;;;;5070185;27;20036;-46
2022/08/26 12:14:23;;;;;;;8.85;2.22;;;21.70;99.90;;;;;;5103449;27;20457;-59
2022/08/26 12:16:50;;;;;;;10.32;2.15;;;21.60;99.90;;;;;;5075743;27;20071;-59
2022/08/26 12:19:30;;;;;;;8.18;1.95;;;21.70;99.90;;;;;;5109115;27;20043;-59
2022/08/26 12:22:16;;;;;;;7.72;2.10;;;21.60;99.90;;;;;;5080502;27;20277;-59
2022/08/26 12:24:54;;;;;;;10.82;2.55;;;21.70;99.90;;;;;;5086858;28;20513;-59
2022/08/26 12:27:24;;;;;;;50.00;44.70;;;21.80;99.90;;;;;;5069923;28;20047;-57
2022/08/26 12:30:23;;;;;;;13.90;4.57;;;22.00;99.90;;;;;;5068950;28;20593;-59
2022/08/26 12:32:52;;;;;;;30.50;23.95;;;22.20;99.90;;;;;;5060220;28;20498;-59
2022/08/26 12:35:20;;;;;;;9.80;3.25;;;22.30;99.90;;;;;;5073318;27;20048;-58
2022/08/26 12:37:52;;;;;;;13.30;3.80;;;22.50;99.90;;;;;;5088538;27;20043;-59
2022/08/26 12:40:26;;;;;;;10.13;3.70;;;22.40;99.90;;;;;;5102504;27;20591;-46
2022/08/26 12:42:53;;;;;;;13.65;4.63;;;22.50;99.90;;;;;;5091139;27;20051;-45
2022/08/26 12:45:35;;;;;;;9.30;2.78;;;22.30;99.90;;;;;;5101928;27;20056;-53
2022/08/26 12:48:20;;;;;;;9.45;3.10;;;22.40;99.90;;;;;;5089038;28;20091;-47
2022/08/26 12:50:50;;;;;;;10.00;3.28;;;22.40;99.90;;;;;;5091455;28;20050;-47
2022/08/26 12:53:18;;;;;;;9.23;3.28;;;22.40;99.90;;;;;;5070422;28;20473;-47
2022/08/26 12:55:48;;;;;;;7.30;3.65;;;22.50;99.90;;;;;;5063649;27;20043;-47
2022/08/26 12:58:14;;;;;;;8.75;3.63;;;22.50;99.90;;;;;;5105570;27;20047;-44
2022/08/26 13:00:42;;;;;;;13.70;3.78;;;22.30;99.90;;;;;;5071996;28;20158;-46